sensor_id;sensor_type;location;lat;lon;timestamp;P1;durP1;ratioP1;P2;durP2;ratioP2
9188;SDS011;34313;50.780;6.084;2023-02-15T00:00:52;45.23;;;22.70;;
9188;SDS011;34313;50.780;6.084;2023-02-15T00:03:19;46.13;;;23.67;;
9188;SDS011;34313;50.780;6.084;2023-02-15T00:05:45;40.47;;;22.20;;
9188;SDS011;34313;50.780;6.084;2023-02-15T00:08:10;36.73;;;20.83;;
9188;SDS011;34313;50.780;6.084;2023-02-15T00:10:36;43.50;;;21.37;;
9188;SDS011;34313;50.780;6.084;2023-02-15T00:13:01;44.60;;;22.40;;
9188;SDS011;34313;50.780;6.084;2023-02-15T00:15:27;39.67;;;21.20;;
9188;SDS011;34313;50.780;6.084;2023-02-15T00:17:52;38.07;;;20.43;;
9188;SDS011;34313;50.780;6.084;2023-02-15T00:20:18;43.47;;;21.43;;
9188;SDS011;34313;50.780;6.084;2023-02-15T00:22:43;43.90;;;21.90;;
9188;SDS011;34313;50.780;6.084;2023-02-15T00:25:09;39.07;;;22.00;;
9188;SDS011;34313;50.780;6.084;2023-02-15T00:27:35;45.47;;;24.60;;
9188;SDS011;34313;50.780;6.084;2023-02-15T00:30:00;53.13;;;24.90;;
9188;SDS011;34313;50.780;6.084;2023-02-15T00:32:25;41.53;;;23.10;;
9188;SDS011;34313;50.780;6.084;2023-02-15T00:34:51;39.10;;;21.67;;
9188;SDS011;34313;50.780;6.084;2023-02-15T00:37:16;45.87;;;23.50;;
9188;SDS011;34313;50.780;6.084;2023-02-15T00:39:41;48.97;;;22.90;;
9188;SDS011;34313;50.780;6.084;2023-02-15T00:42:07;40.00;;;23.57;;
9188;SDS011;34313;50.780;6.084;2023-02-15T00:44:32;45.90;;;22.00;;
9188;SDS011;34313;50.780;6.084;2023-02-15T00:46:58;46.70;;;23.23;;
9188;SDS011;34313;50.780;6.084;2023-02-15T00:49:23;37.93;;;20.40;;
9188;SDS011;34313;50.780;6.084;2023-02-15T00:51:48;40.23;;;22.43;;
9188;SDS011;34313;50.780;6.084;2023-02-15T00:54:14;46.53;;;24.20;;
9188;SDS011;34313;50.780;6.084;2023-02-15T00:56:39;39.13;;;21.83;;
9188;SDS011;34313;50.780;6.084;2023-02-15T00:59:04;40.43;;;22.97;;
9188;SDS011;34313;50.780;6.084;2023-02-15T01:01:30;39.97;;;21.80;;
9188;SDS011;34313;50.780;6.084;2023-02-15T01:03:55;41.73;;;21.17;;
9188;SDS011;34313;50.780;6.084;2023-02-15T01:06:20;41.93;;;23.17;;
9188;SDS011;34313;50.780;6.084;2023-02-15T01:08:46;43.73;;;23.20;;
9188;SDS011;34313;50.780;6.084;2023-02-15T01:11:13;40.97;;;23.07;;
9188;SDS011;34313;50.780;6.084;2023-02-15T01:13:40;39.37;;;21.20;;
9188;SDS011;34313;50.780;6.084;2023-02-15T01:16:06;47.23;;;23.90;;
9188;SDS011;34313;50.780;6.084;2023-02-15T01:18:33;44.53;;;23.43;;
9188;SDS011;34313;50.780;6.084;2023-02-15T01:20:59;42.23;;;22.67;;
9188;SDS011;34313;50.780;6.084;2023-02-15T01:23:24;46.93;;;23.67;;
9188;SDS011;34313;50.780;6.084;2023-02-15T01:25:50;49.33;;;24.47;;
9188;SDS011;34313;50.780;6.084;2023-02-15T01:28:15;48.10;;;23.30;;
9188;SDS011;34313;50.780;6.084;2023-02-15T01:30:41;50.53;;;24.57;;
9188;SDS011;34313;50.780;6.084;2023-02-15T01:33:06;45.27;;;23.53;;
9188;SDS011;34313;50.780;6.084;2023-02-15T01:35:32;44.97;;;24.17;;
9188;SDS011;34313;50.780;6.084;2023-02-15T01:37:57;42.33;;;23.20;;
9188;SDS011;34313;50.780;6.084;2023-02-15T01:40:23;42.07;;;22.87;;
9188;SDS011;34313;50.780;6.084;2023-02-15T01:42:53;39.20;;;22.07;;
9188;SDS011;34313;50.780;6.084;2023-02-15T01:48:33;38.20;;;22.67;;
9188;SDS011;34313;50.780;6.084;2023-02-15T01:50:53;41.87;;;22.47;;
9188;SDS011;34313;50.780;6.084;2023-02-15T01:53:22;44.23;;;22.83;;
9188;SDS011;34313;50.780;6.084;2023-02-15T01:55:53;48.73;;;22.83;;
9188;SDS011;34313;50.780;6.084;2023-02-15T01:58:28;48.33;;;22.47;;
9188;SDS011;34313;50.780;6.084;2023-02-15T02:00:55;44.60;;;22.70;;
9188;SDS011;34313;50.780;6.084;2023-02-15T02:03:59;51.13;;;23.23;;
9188;SDS011;34313;50.780;6.084;2023-02-15T02:06:24;46.40;;;22.60;;
9188;SDS011;34313;50.780;6.084;2023-02-15T02:08:51;46.87;;;23.17;;
9188;SDS011;34313;50.780;6.084;2023-02-15T02:11:18;37.20;;;21.17;;
9188;SDS011;34313;50.780;6.084;2023-02-15T02:13:43;40.63;;;20.40;;
9188;SDS011;34313;50.780;6.084;2023-02-15T02:18:51;42.17;;;22.27;;
9188;SDS011;34313;50.780;6.084;2023-02-15T02:21:46;47.37;;;23.03;;
9188;SDS011;34313;50.780;6.084;2023-02-15T02:30:20;49.47;;;23.00;;
9188;SDS011;34313;50.780;6.084;2023-02-15T02:41:31;38.73;;;20.37;;
9188;SDS011;34313;50.780;6.084;2023-02-15T02:44:19;40.40;;;21.63;;
9188;SDS011;34313;50.780;6.084;2023-02-15T02:46:53;40.43;;;20.80;;
9188;SDS011;34313;50.780;6.084;2023-02-15T02:49:29;39.50;;;20.80;;
9188;SDS011;34313;50.780;6.084;2023-02-15T02:51:59;43.23;;;21.70;;
9188;SDS011;34313;50.780;6.084;2023-02-15T02:54:26;45.97;;;22.60;;
9188;SDS011;34313;50.780;6.084;2023-02-15T02:56:53;39.23;;;21.40;;
9188;SDS011;34313;50.780;6.084;2023-02-15T02:59:26;44.83;;;21.47;;
9188;SDS011;34313;50.780;6.084;2023-02-15T03:01:58;40.37;;;21.37;;
9188;SDS011;34313;50.780;6.084;2023-02-15T03:04:47;43.73;;;21.47;;
9188;SDS011;34313;50.780;6.084;2023-02-15T03:07:23;44.73;;;21.47;;
9188;SDS011;34313;50.780;6.084;2023-02-15T03:09:53;38.20;;;21.30;;
9188;SDS011;34313;50.780;6.084;2023-02-15T03:12:27;37.00;;;20.97;;
9188;SDS011;34313;50.780;6.084;2023-02-15T03:14:57;42.63;;;21.07;;
9188;SDS011;34313;50.780;6.084;2023-02-15T03:17:27;37.80;;;21.00;;
9188;SDS011;34313;50.780;6.084;2023-02-15T03:19:58;40.83;;;22.10;;
9188;SDS011;34313;50.780;6.084;2023-02-15T03:22:51;40.13;;;21.50;;
9188;SDS011;34313;50.780;6.084;2023-02-15T03:25:21;43.60;;;21.23;;
9188;SDS011;34313;50.780;6.084;2023-02-15T03:27:53;41.63;;;20.87;;
9188;SDS011;34313;50.780;6.084;2023-02-15T03:30:23;41.73;;;20.67;;
9188;SDS011;34313;50.780;6.084;2023-02-15T03:32:50;42.00;;;20.33;;
9188;SDS011;34313;50.780;6.084;2023-02-15T03:35:17;44.83;;;21.87;;
9188;SDS011;34313;50.780;6.084;2023-02-15T03:37:57;50.57;;;22.43;;
9188;SDS011;34313;50.780;6.084;2023-02-15T03:40:29;38.50;;;20.83;;
9188;SDS011;34313;50.780;6.084;2023-02-15T03:46:05;43.50;;;20.27;;
9188;SDS011;34313;50.780;6.084;2023-02-15T03:48:38;37.60;;;19.77;;
9188;SDS011;34313;50.780;6.084;2023-02-15T03:51:40;41.97;;;21.53;;
9188;SDS011;34313;50.780;6.084;2023-02-15T03:54:36;37.57;;;20.80;;
9188;SDS011;34313;50.780;6.084;2023-02-15T03:59:55;46.10;;;21.80;;
9188;SDS011;34313;50.780;6.084;2023-02-15T04:05:40;44.30;;;20.87;;
9188;SDS011;34313;50.780;6.084;2023-02-15T04:08:09;45.13;;;22.23;;
9188;SDS011;34313;50.780;6.084;2023-02-15T04:10:35;40.30;;;20.40;;
9188;SDS011;34313;50.780;6.084;2023-02-15T04:13:20;38.23;;;20.27;;
9188;SDS011;34313;50.780;6.084;2023-02-15T04:15:54;40.60;;;21.47;;
9188;SDS011;34313;50.780;6.084;2023-02-15T04:18:38;39.57;;;20.97;;
9188;SDS011;34313;50.780;6.084;2023-02-15T04:21:24;45.43;;;22.63;;
9188;SDS011;34313;50.780;6.084;2023-02-15T04:24:10;43.33;;;22.67;;
9188;SDS011;34313;50.780;6.084;2023-02-15T04:26:54;41.90;;;21.97;;
9188;SDS011;34313;50.780;6.084;2023-02-15T04:29:24;39.30;;;20.10;;
9188;SDS011;34313;50.780;6.084;2023-02-15T04:31:50;37.27;;;20.23;;
9188;SDS011;34313;50.780;6.084;2023-02-15T04:34:16;40.60;;;20.90;;
9188;SDS011;34313;50.780;6.084;2023-02-15T04:36:42;42.87;;;21.57;;
9188;SDS011;34313;50.780;6.084;2023-02-15T04:39:07;41.43;;;22.23;;
9188;SDS011;34313;50.780;6.084;2023-02-15T04:41:34;38.57;;;19.73;;
9188;SDS011;34313;50.780;6.084;2023-02-15T04:43:59;37.50;;;20.97;;
9188;SDS011;34313;50.780;6.084;2023-02-15T04:46:26;36.57;;;20.30;;
9188;SDS011;34313;50.780;6.084;2023-02-15T04:48:52;36.93;;;19.13;;
9188;SDS011;34313;50.780;6.084;2023-02-15T04:51:18;36.73;;;19.57;;
9188;SDS011;34313;50.780;6.084;2023-02-15T04:53:44;39.90;;;19.40;;
9188;SDS011;34313;50.780;6.084;2023-02-15T04:56:09;38.10;;;20.73;;
9188;SDS011;34313;50.780;6.084;2023-02-15T04:58:34;39.63;;;20.87;;
9188;SDS011;34313;50.780;6.084;2023-02-15T05:01:01;33.07;;;19.93;;
9188;SDS011;34313;50.780;6.084;2023-02-15T05:03:27;38.50;;;20.90;;
9188;SDS011;34313;50.780;6.084;2023-02-15T05:05:52;39.50;;;19.47;;
9188;SDS011;34313;50.780;6.084;2023-02-15T05:08:18;36.80;;;19.70;;
9188;SDS011;34313;50.780;6.084;2023-02-15T05:10:43;46.90;;;20.30;;
9188;SDS011;34313;50.780;6.084;2023-02-15T05:13:08;33.90;;;18.63;;
9188;SDS011;34313;50.780;6.084;2023-02-15T05:15:34;37.13;;;19.87;;
9188;SDS011;34313;50.780;6.084;2023-02-15T05:17:59;42.50;;;20.20;;
9188;SDS011;34313;50.780;6.084;2023-02-15T05:20:26;37.60;;;18.57;;
9188;SDS011;34313;50.780;6.084;2023-02-15T05:22:54;42.33;;;19.60;;
9188;SDS011;34313;50.780;6.084;2023-02-15T05:25:20;45.70;;;19.47;;
9188;SDS011;34313;50.780;6.084;2023-02-15T05:28:04;35.10;;;18.90;;
9188;SDS011;34313;50.780;6.084;2023-02-15T05:30:45;33.23;;;18.43;;
9188;SDS011;34313;50.780;6.084;2023-02-15T05:33:37;38.00;;;18.90;;
9188;SDS011;34313;50.780;6.084;2023-02-15T05:36:03;33.03;;;18.33;;
9188;SDS011;34313;50.780;6.084;2023-02-15T05:38:29;37.77;;;19.53;;
9188;SDS011;34313;50.780;6.084;2023-02-15T05:40:55;37.77;;;19.60;;
9188;SDS011;34313;50.780;6.084;2023-02-15T05:43:21;45.63;;;20.17;;
9188;SDS011;34313;50.780;6.084;2023-02-15T05:45:48;39.87;;;18.40;;
9188;SDS011;34313;50.780;6.084;2023-02-15T05:48:15;30.10;;;17.73;;
9188;SDS011;34313;50.780;6.084;2023-02-15T05:50:41;31.77;;;18.03;;
9188;SDS011;34313;50.780;6.084;2023-02-15T05:53:06;40.97;;;18.50;;
9188;SDS011;34313;50.780;6.084;2023-02-15T05:55:32;33.73;;;18.63;;
9188;SDS011;34313;50.780;6.084;2023-02-15T05:57:57;39.47;;;19.13;;
9188;SDS011;34313;50.780;6.084;2023-02-15T06:00:22;35.40;;;18.03;;
9188;SDS011;34313;50.780;6.084;2023-02-15T06:02:48;29.67;;;17.27;;
9188;SDS011;34313;50.780;6.084;2023-02-15T06:05:15;32.30;;;17.33;;
9188;SDS011;34313;50.780;6.084;2023-02-15T06:07:42;33.07;;;17.80;;
9188;SDS011;34313;50.780;6.084;2023-02-15T06:10:09;33.67;;;17.43;;
9188;SDS011;34313;50.780;6.084;2023-02-15T06:12:35;31.33;;;17.27;;
9188;SDS011;34313;50.780;6.084;2023-02-15T06:15:00;28.10;;;16.30;;
9188;SDS011;34313;50.780;6.084;2023-02-15T06:17:25;30.23;;;15.10;;
9188;SDS011;34313;50.780;6.084;2023-02-15T06:19:51;28.90;;;14.20;;
9188;SDS011;34313;50.780;6.084;2023-02-15T06:22:16;36.30;;;17.30;;
9188;SDS011;34313;50.780;6.084;2023-02-15T06:24:41;27.67;;;14.20;;
9188;SDS011;34313;50.780;6.084;2023-02-15T06:27:08;21.90;;;12.80;;
9188;SDS011;34313;50.780;6.084;2023-02-15T06:29:35;20.00;;;12.47;;
9188;SDS011;34313;50.780;6.084;2023-02-15T06:32:00;18.63;;;11.30;;
9188;SDS011;34313;50.780;6.084;2023-02-15T06:34:26;20.47;;;12.40;;
9188;SDS011;34313;50.780;6.084;2023-02-15T06:36:51;20.60;;;11.87;;
9188;SDS011;34313;50.780;6.084;2023-02-15T06:39:16;25.13;;;12.00;;
9188;SDS011;34313;50.780;6.084;2023-02-15T06:41:42;22.77;;;11.30;;
9188;SDS011;34313;50.780;6.084;2023-02-15T06:44:07;22.33;;;11.80;;
9188;SDS011;34313;50.780;6.084;2023-02-15T06:46:32;19.73;;;11.87;;
9188;SDS011;34313;50.780;6.084;2023-02-15T06:48:58;21.43;;;11.67;;
9188;SDS011;34313;50.780;6.084;2023-02-15T06:51:23;24.50;;;12.70;;
9188;SDS011;34313;50.780;6.084;2023-02-15T06:53:49;38.17;;;12.90;;
9188;SDS011;34313;50.780;6.084;2023-02-15T06:56:14;30.93;;;13.80;;
9188;SDS011;34313;50.780;6.084;2023-02-15T06:58:39;32.73;;;13.43;;
9188;SDS011;34313;50.780;6.084;2023-02-15T07:01:06;36.33;;;14.30;;
9188;SDS011;34313;50.780;6.084;2023-02-15T07:03:32;25.87;;;14.83;;
9188;SDS011;34313;50.780;6.084;2023-02-15T07:05:59;25.40;;;13.33;;
9188;SDS011;34313;50.780;6.084;2023-02-15T07:08:26;22.70;;;13.30;;
9188;SDS011;34313;50.780;6.084;2023-02-15T07:10:52;23.87;;;14.63;;
9188;SDS011;34313;50.780;6.084;2023-02-15T07:13:19;22.37;;;13.33;;
9188;SDS011;34313;50.780;6.084;2023-02-15T07:15:47;36.20;;;14.40;;
9188;SDS011;34313;50.780;6.084;2023-02-15T07:18:13;25.60;;;14.27;;
9188;SDS011;34313;50.780;6.084;2023-02-15T07:20:39;19.97;;;12.63;;
9188;SDS011;34313;50.780;6.084;2023-02-15T07:23:07;26.53;;;14.37;;
9188;SDS011;34313;50.780;6.084;2023-02-15T07:25:33;26.40;;;12.40;;
9188;SDS011;34313;50.780;6.084;2023-02-15T07:27:59;21.50;;;12.97;;
9188;SDS011;34313;50.780;6.084;2023-02-15T07:30:26;20.50;;;12.37;;
9188;SDS011;34313;50.780;6.084;2023-02-15T07:32:55;23.63;;;13.93;;
9188;SDS011;34313;50.780;6.084;2023-02-15T07:35:51;20.90;;;11.63;;
9188;SDS011;34313;50.780;6.084;2023-02-15T07:38:18;21.30;;;12.20;;
9188;SDS011;34313;50.780;6.084;2023-02-15T07:40:44;21.10;;;13.27;;
9188;SDS011;34313;50.780;6.084;2023-02-15T07:43:09;24.00;;;12.90;;
9188;SDS011;34313;50.780;6.084;2023-02-15T07:45:36;19.10;;;12.83;;
9188;SDS011;34313;50.780;6.084;2023-02-15T07:48:02;19.80;;;12.20;;
9188;SDS011;34313;50.780;6.084;2023-02-15T07:50:29;17.70;;;10.53;;
9188;SDS011;34313;50.780;6.084;2023-02-15T07:52:55;20.23;;;11.50;;
9188;SDS011;34313;50.780;6.084;2023-02-15T07:55:20;21.30;;;12.10;;
9188;SDS011;34313;50.780;6.084;2023-02-15T07:57:46;19.40;;;11.97;;
9188;SDS011;34313;50.780;6.084;2023-02-15T08:00:13;25.80;;;12.43;;
9188;SDS011;34313;50.780;6.084;2023-02-15T08:02:40;18.27;;;11.37;;
9188;SDS011;34313;50.780;6.084;2023-02-15T08:05:06;21.30;;;12.00;;
9188;SDS011;34313;50.780;6.084;2023-02-15T08:07:32;23.27;;;12.23;;
9188;SDS011;34313;50.780;6.084;2023-02-15T08:09:57;17.57;;;11.90;;
9188;SDS011;34313;50.780;6.084;2023-02-15T08:12:25;19.87;;;11.37;;
9188;SDS011;34313;50.780;6.084;2023-02-15T08:14:51;15.63;;;10.07;;
9188;SDS011;34313;50.780;6.084;2023-02-15T08:17:16;15.40;;;10.27;;
9188;SDS011;34313;50.780;6.084;2023-02-15T08:19:42;17.57;;;11.40;;
9188;SDS011;34313;50.780;6.084;2023-02-15T08:22:07;21.83;;;11.40;;
9188;SDS011;34313;50.780;6.084;2023-02-15T08:24:37;17.77;;;11.30;;
9188;SDS011;34313;50.780;6.084;2023-02-15T08:27:03;18.23;;;10.57;;
9188;SDS011;34313;50.780;6.084;2023-02-15T08:29:30;14.87;;;10.93;;
9188;SDS011;34313;50.780;6.084;2023-02-15T08:31:57;19.60;;;10.90;;
9188;SDS011;34313;50.780;6.084;2023-02-15T08:34:27;18.20;;;10.17;;
9188;SDS011;34313;50.780;6.084;2023-02-15T08:36:54;19.87;;;10.07;;
9188;SDS011;34313;50.780;6.084;2023-02-15T08:39:19;14.23;;;9.93;;
9188;SDS011;34313;50.780;6.084;2023-02-15T08:41:46;18.17;;;11.17;;
9188;SDS011;34313;50.780;6.084;2023-02-15T08:44:12;18.47;;;10.03;;
9188;SDS011;34313;50.780;6.084;2023-02-15T08:46:40;19.77;;;10.07;;
9188;SDS011;34313;50.780;6.084;2023-02-15T08:49:07;22.00;;;11.33;;
9188;SDS011;34313;50.780;6.084;2023-02-15T08:51:34;20.27;;;12.60;;
9188;SDS011;34313;50.780;6.084;2023-02-15T08:54:02;20.93;;;10.43;;
9188;SDS011;34313;50.780;6.084;2023-02-15T08:56:30;17.70;;;11.20;;
9188;SDS011;34313;50.780;6.084;2023-02-15T08:58:59;18.97;;;11.93;;
9188;SDS011;34313;50.780;6.084;2023-02-15T09:01:26;22.53;;;10.90;;
9188;SDS011;34313;50.780;6.084;2023-02-15T09:04:00;21.60;;;10.50;;
9188;SDS011;34313;50.780;6.084;2023-02-15T09:06:27;23.70;;;9.97;;
9188;SDS011;34313;50.780;6.084;2023-02-15T09:08:53;20.00;;;10.07;;
9188;SDS011;34313;50.780;6.084;2023-02-15T09:11:29;18.63;;;9.67;;
9188;SDS011;34313;50.780;6.084;2023-02-15T09:16:23;16.53;;;9.27;;
9188;SDS011;34313;50.780;6.084;2023-02-15T09:18:50;16.60;;;10.53;;
9188;SDS011;34313;50.780;6.084;2023-02-15T09:21:17;21.00;;;11.10;;
9188;SDS011;34313;50.780;6.084;2023-02-15T09:23:45;18.47;;;9.97;;
9188;SDS011;34313;50.780;6.084;2023-02-15T09:26:12;15.57;;;9.60;;
9188;SDS011;34313;50.780;6.084;2023-02-15T09:28:40;18.50;;;9.67;;
9188;SDS011;34313;50.780;6.084;2023-02-15T09:31:07;22.17;;;10.00;;
9188;SDS011;34313;50.780;6.084;2023-02-15T09:33:34;16.53;;;10.20;;
9188;SDS011;34313;50.780;6.084;2023-02-15T09:36:01;21.27;;;10.30;;
9188;SDS011;34313;50.780;6.084;2023-02-15T09:38:26;16.57;;;9.67;;
9188;SDS011;34313;50.780;6.084;2023-02-15T09:46:36;20.20;;;10.73;;
9188;SDS011;34313;50.780;6.084;2023-02-15T09:51:59;18.47;;;11.67;;
9188;SDS011;34313;50.780;6.084;2023-02-15T09:57:08;14.93;;;9.03;;
9188;SDS011;34313;50.780;6.084;2023-02-15T10:02:31;15.50;;;8.90;;
9188;SDS011;34313;50.780;6.084;2023-02-15T10:16:49;12.10;;;7.23;;
9188;SDS011;34313;50.780;6.084;2023-02-15T10:19:19;15.70;;;7.80;;
9188;SDS011;34313;50.780;6.084;2023-02-15T10:27:32;15.10;;;8.00;;
9188;SDS011;34313;50.780;6.084;2023-02-15T10:32:34;13.70;;;7.40;;
9188;SDS011;34313;50.780;6.084;2023-02-15T10:37:45;13.88;;;7.70;;
9188;SDS011;34313;50.780;6.084;2023-02-15T10:51:30;12.37;;;7.40;;
9188;SDS011;34313;50.780;6.084;2023-02-15T10:54:24;13.53;;;5.73;;
9188;SDS011;34313;50.780;6.084;2023-02-15T10:57:23;15.33;;;7.13;;
9188;SDS011;34313;50.780;6.084;2023-02-15T11:07:48;13.50;;;7.10;;
9188;SDS011;34313;50.780;6.084;2023-02-15T11:10:31;13.07;;;6.90;;
9188;SDS011;34313;50.780;6.084;2023-02-15T11:13:04;11.97;;;6.63;;
9188;SDS011;34313;50.780;6.084;2023-02-15T11:21:50;14.87;;;6.17;;
9188;SDS011;34313;50.780;6.084;2023-02-15T11:24:20;11.60;;;6.40;;
9188;SDS011;34313;50.780;6.084;2023-02-15T11:32:20;13.33;;;8.17;;
9188;SDS011;34313;50.780;6.084;2023-02-15T11:34:56;17.43;;;9.10;;
9188;SDS011;34313;50.780;6.084;2023-02-15T11:40:34;18.33;;;9.13;;
9188;SDS011;34313;50.780;6.084;2023-02-15T11:43:07;14.70;;;8.53;;
9188;SDS011;34313;50.780;6.084;2023-02-15T11:45:38;18.33;;;8.70;;
9188;SDS011;34313;50.780;6.084;2023-02-15T11:48:14;17.73;;;8.90;;
9188;SDS011;34313;50.780;6.084;2023-02-15T11:50:41;15.93;;;8.53;;
9188;SDS011;34313;50.780;6.084;2023-02-15T11:53:15;14.85;;;9.10;;
9188;SDS011;34313;50.780;6.084;2023-02-15T11:55:43;16.17;;;9.33;;
9188;SDS011;34313;50.780;6.084;2023-02-15T12:01:46;15.53;;;9.50;;
9188;SDS011;34313;50.780;6.084;2023-02-15T12:06:59;22.80;;;10.77;;
9188;SDS011;34313;50.780;6.084;2023-02-15T12:09:50;19.20;;;10.10;;
9188;SDS011;34313;50.780;6.084;2023-02-15T12:12:26;17.03;;;10.43;;
9188;SDS011;34313;50.780;6.084;2023-02-15T12:14:58;17.70;;;11.40;;
9188;SDS011;34313;50.780;6.084;2023-02-15T12:17:32;16.37;;;10.63;;
9188;SDS011;34313;50.780;6.084;2023-02-15T12:20:02;19.47;;;10.40;;
9188;SDS011;34313;50.780;6.084;2023-02-15T12:22:46;18.27;;;10.87;;
9188;SDS011;34313;50.780;6.084;2023-02-15T12:25:23;15.87;;;10.00;;
9188;SDS011;34313;50.780;6.084;2023-02-15T12:27:54;12.83;;;9.30;;
9188;SDS011;34313;50.780;6.084;2023-02-15T12:30:25;19.83;;;11.63;;
9188;SDS011;34313;50.780;6.084;2023-02-15T12:32:54;16.97;;;10.37;;
9188;SDS011;34313;50.780;6.084;2023-02-15T12:35:32;20.60;;;10.80;;
9188;SDS011;34313;50.780;6.084;2023-02-15T12:40:34;15.20;;;8.27;;
9188;SDS011;34313;50.780;6.084;2023-02-15T12:43:00;14.27;;;8.97;;
9188;SDS011;34313;50.780;6.084;2023-02-15T12:45:35;12.67;;;8.43;;
9188;SDS011;34313;50.780;6.084;2023-02-15T12:48:18;12.87;;;8.30;;
9188;SDS011;34313;50.780;6.084;2023-02-15T12:50:48;13.77;;;8.97;;
9188;SDS011;34313;50.780;6.084;2023-02-15T12:53:22;15.77;;;8.57;;
9188;SDS011;34313;50.780;6.084;2023-02-15T12:58:29;15.13;;;9.70;;
9188;SDS011;34313;50.780;6.084;2023-02-15T13:01:17;17.60;;;9.83;;
9188;SDS011;34313;50.780;6.084;2023-02-15T13:06:22;14.37;;;8.80;;
9188;SDS011;34313;50.780;6.084;2023-02-15T13:08:49;17.27;;;10.20;;
9188;SDS011;34313;50.780;6.084;2023-02-15T13:11:26;15.60;;;10.27;;
9188;SDS011;34313;50.780;6.084;2023-02-15T13:18:56;19.00;;;10.90;;
9188;SDS011;34313;50.780;6.084;2023-02-15T13:21:29;16.17;;;10.60;;
9188;SDS011;34313;50.780;6.084;2023-02-15T13:26:55;29.00;;;11.20;;
9188;SDS011;34313;50.780;6.084;2023-02-15T13:29:26;15.10;;;9.07;;
9188;SDS011;34313;50.780;6.084;2023-02-15T13:31:55;18.20;;;10.30;;
9188;SDS011;34313;50.780;6.084;2023-02-15T13:34:24;16.07;;;9.80;;
9188;SDS011;34313;50.780;6.084;2023-02-15T13:40:58;17.87;;;11.07;;
9188;SDS011;34313;50.780;6.084;2023-02-15T13:43:14;26.10;;;15.10;;
9188;SDS011;34313;50.780;6.084;2023-02-15T13:51:12;23.97;;;13.90;;
9188;SDS011;34313;50.780;6.084;2023-02-15T13:54:09;22.17;;;14.20;;
9188;SDS011;34313;50.780;6.084;2023-02-15T14:11:24;23.33;;;13.43;;
9188;SDS011;34313;50.780;6.084;2023-02-15T14:19:37;23.00;;;13.10;;
9188;SDS011;34313;50.780;6.084;2023-02-15T14:22:17;22.67;;;11.70;;
9188;SDS011;34313;50.780;6.084;2023-02-15T14:30:44;23.23;;;14.20;;
9188;SDS011;34313;50.780;6.084;2023-02-15T14:33:25;26.57;;;14.80;;
9188;SDS011;34313;50.780;6.084;2023-02-15T14:36:05;27.13;;;15.40;;
9188;SDS011;34313;50.780;6.084;2023-02-15T14:44:29;31.17;;;17.17;;
9188;SDS011;34313;50.780;6.084;2023-02-15T14:47:12;29.23;;;15.83;;
9188;SDS011;34313;50.780;6.084;2023-02-15T14:58:54;22.73;;;13.50;;
9188;SDS011;34313;50.780;6.084;2023-02-15T15:01:27;29.10;;;15.50;;
9188;SDS011;34313;50.780;6.084;2023-02-15T15:04:01;26.83;;;13.60;;
9188;SDS011;34313;50.780;6.084;2023-02-15T15:06:34;26.10;;;14.95;;
9188;SDS011;34313;50.780;6.084;2023-02-15T15:11:38;26.47;;;15.27;;
9188;SDS011;34313;50.780;6.084;2023-02-15T15:14:07;27.17;;;15.37;;
9188;SDS011;34313;50.780;6.084;2023-02-15T15:19:02;27.60;;;14.87;;
9188;SDS011;34313;50.780;6.084;2023-02-15T15:32:39;24.63;;;13.73;;
9188;SDS011;34313;50.780;6.084;2023-02-15T15:37:56;32.93;;;15.80;;
9188;SDS011;34313;50.780;6.084;2023-02-15T15:40:42;28.10;;;15.33;;
9188;SDS011;34313;50.780;6.084;2023-02-15T15:49:17;29.60;;;15.23;;
9188;SDS011;34313;50.780;6.084;2023-02-15T15:51:45;30.57;;;15.67;;
9188;SDS011;34313;50.780;6.084;2023-02-15T15:54:15;24.80;;;14.90;;
9188;SDS011;34313;50.780;6.084;2023-02-15T15:56:43;25.13;;;15.73;;
9188;SDS011;34313;50.780;6.084;2023-02-15T15:59:13;31.40;;;16.97;;
9188;SDS011;34313;50.780;6.084;2023-02-15T16:01:45;35.80;;;17.67;;
9188;SDS011;34313;50.780;6.084;2023-02-15T16:04:12;34.20;;;16.30;;
9188;SDS011;34313;50.780;6.084;2023-02-15T16:06:39;29.43;;;15.90;;
9188;SDS011;34313;50.780;6.084;2023-02-15T16:09:19;29.80;;;15.47;;
9188;SDS011;34313;50.780;6.084;2023-02-15T16:11:46;28.93;;;14.83;;
9188;SDS011;34313;50.780;6.084;2023-02-15T16:14:16;29.60;;;15.80;;
9188;SDS011;34313;50.780;6.084;2023-02-15T16:16:50;26.20;;;15.07;;
9188;SDS011;34313;50.780;6.084;2023-02-15T16:19:20;30.03;;;15.70;;
9188;SDS011;34313;50.780;6.084;2023-02-15T16:21:49;29.97;;;16.10;;
9188;SDS011;34313;50.780;6.084;2023-02-15T16:29:37;31.93;;;17.67;;
9188;SDS011;34313;50.780;6.084;2023-02-15T16:32:14;36.23;;;18.40;;
9188;SDS011;34313;50.780;6.084;2023-02-15T16:34:56;38.05;;;21.00;;
9188;SDS011;34313;50.780;6.084;2023-02-15T16:37:32;36.63;;;19.63;;
9188;SDS011;34313;50.780;6.084;2023-02-15T16:39:59;32.33;;;17.80;;
9188;SDS011;34313;50.780;6.084;2023-02-15T16:42:25;30.97;;;16.60;;
9188;SDS011;34313;50.780;6.084;2023-02-15T16:44:51;36.43;;;18.73;;
9188;SDS011;34313;50.780;6.084;2023-02-15T16:47:26;30.60;;;17.13;;
9188;SDS011;34313;50.780;6.084;2023-02-15T16:49:55;32.17;;;17.60;;
9188;SDS011;34313;50.780;6.084;2023-02-15T16:52:26;36.30;;;18.13;;
9188;SDS011;34313;50.780;6.084;2023-02-15T16:57:30;35.70;;;17.80;;
9188;SDS011;34313;50.780;6.084;2023-02-15T17:00:14;32.93;;;18.17;;
9188;SDS011;34313;50.780;6.084;2023-02-15T17:03:19;33.07;;;17.57;;
9188;SDS011;34313;50.780;6.084;2023-02-15T17:05:46;32.47;;;16.33;;
9188;SDS011;34313;50.780;6.084;2023-02-15T17:11:04;31.00;;;16.30;;
9188;SDS011;34313;50.780;6.084;2023-02-15T17:13:36;42.40;;;17.17;;
9188;SDS011;34313;50.780;6.084;2023-02-15T17:18:27;31.60;;;15.23;;
9188;SDS011;34313;50.780;6.084;2023-02-15T17:20:56;29.00;;;16.17;;
9188;SDS011;34313;50.780;6.084;2023-02-15T17:26:00;34.27;;;17.63;;
9188;SDS011;34313;50.780;6.084;2023-02-15T17:28:36;33.87;;;17.73;;
9188;SDS011;34313;50.780;6.084;2023-02-15T17:31:02;37.80;;;17.33;;
9188;SDS011;34313;50.780;6.084;2023-02-15T17:41:28;37.33;;;18.50;;
9188;SDS011;34313;50.780;6.084;2023-02-15T17:43:59;37.67;;;17.10;;
9188;SDS011;34313;50.780;6.084;2023-02-15T17:46:25;33.47;;;16.70;;
9188;SDS011;34313;50.780;6.084;2023-02-15T17:48:57;40.47;;;18.00;;
9188;SDS011;34313;50.780;6.084;2023-02-15T17:51:22;33.93;;;16.40;;
9188;SDS011;34313;50.780;6.084;2023-02-15T17:53:48;35.10;;;17.67;;
9188;SDS011;34313;50.780;6.084;2023-02-15T17:56:35;35.10;;;17.37;;
9188;SDS011;34313;50.780;6.084;2023-02-15T17:59:02;34.83;;;17.47;;
9188;SDS011;34313;50.780;6.084;2023-02-15T18:01:31;34.30;;;17.17;;
9188;SDS011;34313;50.780;6.084;2023-02-15T18:04:16;37.60;;;18.03;;
9188;SDS011;34313;50.780;6.084;2023-02-15T18:07:01;34.20;;;16.90;;
9188;SDS011;34313;50.780;6.084;2023-02-15T18:09:44;37.10;;;16.97;;
9188;SDS011;34313;50.780;6.084;2023-02-15T18:12:29;35.63;;;17.00;;
9188;SDS011;34313;50.780;6.084;2023-02-15T18:14:57;33.10;;;16.83;;
9188;SDS011;34313;50.780;6.084;2023-02-15T18:17:25;30.97;;;16.47;;
9188;SDS011;34313;50.780;6.084;2023-02-15T18:20:03;33.67;;;16.57;;
9188;SDS011;34313;50.780;6.084;2023-02-15T18:22:35;33.60;;;17.23;;
9188;SDS011;34313;50.780;6.084;2023-02-15T18:25:00;37.33;;;16.60;;
9188;SDS011;34313;50.780;6.084;2023-02-15T18:27:26;40.50;;;16.30;;
9188;SDS011;34313;50.780;6.084;2023-02-15T18:29:51;35.70;;;16.73;;
9188;SDS011;34313;50.780;6.084;2023-02-15T18:32:17;33.90;;;15.60;;
9188;SDS011;34313;50.780;6.084;2023-02-15T18:34:48;34.13;;;16.23;;
9188;SDS011;34313;50.780;6.084;2023-02-15T18:37:14;32.00;;;15.87;;